sensor_id;sensor_type;location;lat;lon;timestamp;P1;durP1;ratioP1;P2;durP2;ratioP2
51224;SDS011;37298;42.688;23.312;2023-05-10T00:00:46;6.07;;;3.70;;
51224;SDS011;37298;42.688;23.312;2023-05-10T00:03:13;6.30;;;4.25;;
51224;SDS011;37298;42.688;23.312;2023-05-10T00:05:40;5.28;;;3.47;;
51224;SDS011;37298;42.688;23.312;2023-05-10T00:08:06;5.93;;;3.92;;
51224;SDS011;37298;42.688;23.312;2023-05-10T00:10:33;6.00;;;4.18;;
51224;SDS011;37298;42.688;23.312;2023-05-10T00:13:00;6.47;;;4.32;;
51224;SDS011;37298;42.688;23.312;2023-05-10T00:15:27;6.28;;;4.13;;
51224;SDS011;37298;42.688;23.312;2023-05-10T00:17:57;4.47;;;3.75;;
51224;SDS011;37298;42.688;23.312;2023-05-10T00:20:24;4.97;;;3.58;;
51224;SDS011;37298;42.688;23.312;2023-05-10T00:22:50;6.05;;;4.40;;
51224;SDS011;37298;42.688;23.312;2023-05-10T00:25:17;7.55;;;5.13;;
51224;SDS011;37298;42.688;23.312;2023-05-10T00:27:44;5.28;;;4.35;;
51224;SDS011;37298;42.688;23.312;2023-05-10T00:30:11;6.05;;;4.55;;
51224;SDS011;37298;42.688;23.312;2023-05-10T00:32:38;7.57;;;4.93;;
51224;SDS011;37298;42.688;23.312;2023-05-10T00:35:07;5.72;;;4.68;;
51224;SDS011;37298;42.688;23.312;2023-05-10T00:37:34;6.40;;;4.93;;
51224;SDS011;37298;42.688;23.312;2023-05-10T00:40:01;7.95;;;4.85;;
51224;SDS011;37298;42.688;23.312;2023-05-10T00:42:27;7.95;;;4.65;;
51224;SDS011;37298;42.688;23.312;2023-05-10T00:44:54;7.35;;;5.53;;
51224;SDS011;37298;42.688;23.312;2023-05-10T00:47:21;5.55;;;4.35;;
51224;SDS011;37298;42.688;23.312;2023-05-10T00:49:48;9.15;;;4.75;;
51224;SDS011;37298;42.688;23.312;2023-05-10T00:52:17;6.10;;;4.55;;
51224;SDS011;37298;42.688;23.312;2023-05-10T00:54:44;7.13;;;5.30;;
51224;SDS011;37298;42.688;23.312;2023-05-10T00:57:11;5.43;;;4.47;;
51224;SDS011;37298;42.688;23.312;2023-05-10T00:59:38;6.45;;;4.82;;
51224;SDS011;37298;42.688;23.312;2023-05-10T01:02:05;8.90;;;5.85;;
51224;SDS011;37298;42.688;23.312;2023-05-10T01:04:32;7.22;;;5.47;;
51224;SDS011;37298;42.688;23.312;2023-05-10T01:06:59;8.57;;;6.25;;
51224;SDS011;37298;42.688;23.312;2023-05-10T01:09:28;8.80;;;6.07;;
51224;SDS011;37298;42.688;23.312;2023-05-10T01:11:54;8.65;;;6.25;;
51224;SDS011;37298;42.688;23.312;2023-05-10T01:14:21;9.65;;;5.72;;
51224;SDS011;37298;42.688;23.312;2023-05-10T01:16:48;7.63;;;5.32;;
51224;SDS011;37298;42.688;23.312;2023-05-10T01:19:17;9.38;;;6.18;;
51224;SDS011;37298;42.688;23.312;2023-05-10T01:21:48;9.07;;;6.07;;
51224;SDS011;37298;42.688;23.312;2023-05-10T01:24:21;7.75;;;5.15;;
51224;SDS011;37298;42.688;23.312;2023-05-10T01:27:01;7.03;;;5.60;;
51224;SDS011;37298;42.688;23.312;2023-05-10T01:29:37;7.28;;;5.35;;
51224;SDS011;37298;42.688;23.312;2023-05-10T01:32:20;6.97;;;5.00;;
51224;SDS011;37298;42.688;23.312;2023-05-10T01:34:52;7.63;;;5.50;;
51224;SDS011;37298;42.688;23.312;2023-05-10T01:37:22;7.32;;;5.10;;
51224;SDS011;37298;42.688;23.312;2023-05-10T01:39:53;7.95;;;5.30;;
51224;SDS011;37298;42.688;23.312;2023-05-10T01:42:23;7.65;;;4.72;;
51224;SDS011;37298;42.688;23.312;2023-05-10T01:44:54;8.00;;;4.78;;
51224;SDS011;37298;42.688;23.312;2023-05-10T01:47:26;6.57;;;4.50;;
51224;SDS011;37298;42.688;23.312;2023-05-10T01:49:55;7.30;;;4.72;;
51224;SDS011;37298;42.688;23.312;2023-05-10T01:52:25;6.30;;;4.65;;
51224;SDS011;37298;42.688;23.312;2023-05-10T01:54:53;8.85;;;4.50;;
51224;SDS011;37298;42.688;23.312;2023-05-10T01:57:22;6.60;;;4.47;;
51224;SDS011;37298;42.688;23.312;2023-05-10T01:59:51;4.57;;;3.60;;
51224;SDS011;37298;42.688;23.312;2023-05-10T02:02:18;4.75;;;3.88;;
51224;SDS011;37298;42.688;23.312;2023-05-10T02:04:48;4.70;;;3.83;;
51224;SDS011;37298;42.688;23.312;2023-05-10T02:07:16;3.03;;;2.65;;
51224;SDS011;37298;42.688;23.312;2023-05-10T02:09:44;4.95;;;3.55;;
51224;SDS011;37298;42.688;23.312;2023-05-10T02:12:12;4.72;;;3.50;;
51224;SDS011;37298;42.688;23.312;2023-05-10T02:14:40;5.05;;;3.53;;
51224;SDS011;37298;42.688;23.312;2023-05-10T02:17:07;4.93;;;3.35;;
51224;SDS011;37298;42.688;23.312;2023-05-10T02:19:36;5.20;;;3.60;;
51224;SDS011;37298;42.688;23.312;2023-05-10T02:22:05;8.82;;;3.63;;
51224;SDS011;37298;42.688;23.312;2023-05-10T02:24:33;5.05;;;3.40;;
51224;SDS011;37298;42.688;23.312;2023-05-10T02:27:01;3.90;;;2.85;;
51224;SDS011;37298;42.688;23.312;2023-05-10T02:29:28;4.00;;;3.42;;
51224;SDS011;37298;42.688;23.312;2023-05-10T02:31:56;3.43;;;3.10;;
51224;SDS011;37298;42.688;23.312;2023-05-10T02:34:24;3.63;;;2.53;;
51224;SDS011;37298;42.688;23.312;2023-05-10T02:36:52;3.55;;;3.00;;
51224;SDS011;37298;42.688;23.312;2023-05-10T02:39:21;3.70;;;3.35;;
51224;SDS011;37298;42.688;23.312;2023-05-10T02:41:49;4.13;;;3.28;;
51224;SDS011;37298;42.688;23.312;2023-05-10T02:44:17;5.18;;;3.30;;
51224;SDS011;37298;42.688;23.312;2023-05-10T02:46:45;5.07;;;3.55;;
51224;SDS011;37298;42.688;23.312;2023-05-10T02:49:13;3.60;;;2.60;;
51224;SDS011;37298;42.688;23.312;2023-05-10T02:51:41;4.53;;;3.03;;
51224;SDS011;37298;42.688;23.312;2023-05-10T02:54:09;4.13;;;3.35;;
51224;SDS011;37298;42.688;23.312;2023-05-10T02:56:40;3.45;;;3.15;;
51224;SDS011;37298;42.688;23.312;2023-05-10T02:59:07;3.90;;;2.90;;
51224;SDS011;37298;42.688;23.312;2023-05-10T03:01:34;5.78;;;2.95;;
51224;SDS011;37298;42.688;23.312;2023-05-10T03:04:01;3.63;;;3.00;;
51224;SDS011;37298;42.688;23.312;2023-05-10T03:06:28;4.55;;;3.08;;
51224;SDS011;37298;42.688;23.312;2023-05-10T03:08:55;4.50;;;3.13;;
51224;SDS011;37298;42.688;23.312;2023-05-10T03:11:24;5.10;;;3.40;;
51224;SDS011;37298;42.688;23.312;2023-05-10T03:14:04;7.00;;;3.08;;
51224;SDS011;37298;42.688;23.312;2023-05-10T03:16:35;3.78;;;3.13;;
51224;SDS011;37298;42.688;23.312;2023-05-10T03:19:06;4.85;;;3.25;;
51224;SDS011;37298;42.688;23.312;2023-05-10T03:21:38;3.90;;;3.05;;
51224;SDS011;37298;42.688;23.312;2023-05-10T03:24:08;4.93;;;3.20;;
51224;SDS011;37298;42.688;23.312;2023-05-10T03:26:38;3.53;;;2.60;;
51224;SDS011;37298;42.688;23.312;2023-05-10T03:29:13;3.47;;;2.95;;
51224;SDS011;37298;42.688;23.312;2023-05-10T03:31:41;4.47;;;3.45;;
51224;SDS011;37298;42.688;23.312;2023-05-10T03:34:08;6.63;;;3.80;;
51224;SDS011;37298;42.688;23.312;2023-05-10T03:36:35;4.15;;;2.92;;
51224;SDS011;37298;42.688;23.312;2023-05-10T03:39:02;4.45;;;3.33;;
51224;SDS011;37298;42.688;23.312;2023-05-10T03:41:29;5.68;;;3.40;;
51224;SDS011;37298;42.688;23.312;2023-05-10T03:43:56;4.38;;;3.05;;
51224;SDS011;37298;42.688;23.312;2023-05-10T03:46:24;4.20;;;3.13;;
51224;SDS011;37298;42.688;23.312;2023-05-10T03:48:52;4.85;;;3.85;;
51224;SDS011;37298;42.688;23.312;2023-05-10T03:51:18;6.47;;;3.92;;
51224;SDS011;37298;42.688;23.312;2023-05-10T03:53:45;5.03;;;3.53;;
51224;SDS011;37298;42.688;23.312;2023-05-10T03:56:12;4.68;;;3.10;;
51224;SDS011;37298;42.688;23.312;2023-05-10T03:58:39;5.50;;;3.10;;
51224;SDS011;37298;42.688;23.312;2023-05-10T04:01:06;4.90;;;3.65;;
51224;SDS011;37298;42.688;23.312;2023-05-10T04:03:34;4.60;;;3.35;;
51224;SDS011;37298;42.688;23.312;2023-05-10T04:06:02;4.28;;;3.25;;
51224;SDS011;37298;42.688;23.312;2023-05-10T04:08:29;4.72;;;2.90;;
51224;SDS011;37298;42.688;23.312;2023-05-10T04:11:04;5.03;;;3.42;;
51224;SDS011;37298;42.688;23.312;2023-05-10T04:13:31;6.40;;;3.75;;
51224;SDS011;37298;42.688;23.312;2023-05-10T04:15:58;4.13;;;3.30;;
51224;SDS011;37298;42.688;23.312;2023-05-10T04:18:25;5.38;;;4.05;;
51224;SDS011;37298;42.688;23.312;2023-05-10T04:20:53;6.35;;;3.80;;
51224;SDS011;37298;42.688;23.312;2023-05-10T04:23:20;5.35;;;3.72;;
51224;SDS011;37298;42.688;23.312;2023-05-10T04:25:47;4.78;;;3.20;;
51224;SDS011;37298;42.688;23.312;2023-05-10T04:28:13;5.60;;;3.72;;
51224;SDS011;37298;42.688;23.312;2023-05-10T04:30:41;4.35;;;3.28;;
51224;SDS011;37298;42.688;23.312;2023-05-10T04:33:07;5.18;;;3.25;;
51224;SDS011;37298;42.688;23.312;2023-05-10T04:35:35;8.93;;;3.50;;
51224;SDS011;37298;42.688;23.312;2023-05-10T04:38:03;6.18;;;3.97;;
51224;SDS011;37298;42.688;23.312;2023-05-10T04:40:29;4.60;;;3.28;;
51224;SDS011;37298;42.688;23.312;2023-05-10T04:42:56;4.68;;;3.45;;
51224;SDS011;37298;42.688;23.312;2023-05-10T04:45:23;5.00;;;3.85;;
51224;SDS011;37298;42.688;23.312;2023-05-10T04:47:50;6.22;;;3.97;;
51224;SDS011;37298;42.688;23.312;2023-05-10T04:50:17;5.68;;;3.33;;
51224;SDS011;37298;42.688;23.312;2023-05-10T04:52:43;16.13;;;4.88;;
51224;SDS011;37298;42.688;23.312;2023-05-10T04:55:12;5.93;;;3.85;;
51224;SDS011;37298;42.688;23.312;2023-05-10T04:57:39;6.13;;;4.25;;
51224;SDS011;37298;42.688;23.312;2023-05-10T05:00:06;4.93;;;2.97;;
51224;SDS011;37298;42.688;23.312;2023-05-10T05:02:33;4.40;;;3.35;;
51224;SDS011;37298;42.688;23.312;2023-05-10T05:05:00;5.82;;;3.80;;
51224;SDS011;37298;42.688;23.312;2023-05-10T05:07:28;6.65;;;3.65;;
51224;SDS011;37298;42.688;23.312;2023-05-10T05:09:55;6.20;;;3.63;;
51224;SDS011;37298;42.688;23.312;2023-05-10T05:12:24;6.03;;;4.10;;
51224;SDS011;37298;42.688;23.312;2023-05-10T05:14:51;8.98;;;4.07;;
51224;SDS011;37298;42.688;23.312;2023-05-10T05:17:17;6.20;;;3.97;;
51224;SDS011;37298;42.688;23.312;2023-05-10T05:19:44;6.60;;;4.28;;
51224;SDS011;37298;42.688;23.312;2023-05-10T05:22:11;5.20;;;4.18;;
51224;SDS011;37298;42.688;23.312;2023-05-10T05:24:38;7.40;;;3.95;;
51224;SDS011;37298;42.688;23.312;2023-05-10T05:27:04;6.75;;;3.95;;
51224;SDS011;37298;42.688;23.312;2023-05-10T05:29:33;7.13;;;4.38;;
51224;SDS011;37298;42.688;23.312;2023-05-10T05:32:00;8.23;;;4.63;;
51224;SDS011;37298;42.688;23.312;2023-05-10T05:34:27;12.82;;;4.72;;
51224;SDS011;37298;42.688;23.312;2023-05-10T05:36:54;6.22;;;4.45;;
51224;SDS011;37298;42.688;23.312;2023-05-10T05:39:21;7.57;;;4.47;;
51224;SDS011;37298;42.688;23.312;2023-05-10T05:41:48;7.30;;;4.57;;
51224;SDS011;37298;42.688;23.312;2023-05-10T05:44:14;9.45;;;4.85;;
51224;SDS011;37298;42.688;23.312;2023-05-10T05:46:43;10.25;;;4.40;;
51224;SDS011;37298;42.688;23.312;2023-05-10T05:49:09;8.10;;;4.72;;
51224;SDS011;37298;42.688;23.312;2023-05-10T05:51:36;8.32;;;5.07;;
51224;SDS011;37298;42.688;23.312;2023-05-10T05:54:03;7.85;;;4.53;;
51224;SDS011;37298;42.688;23.312;2023-05-10T05:56:30;7.38;;;4.40;;
51224;SDS011;37298;42.688;23.312;2023-05-10T05:58:57;8.02;;;4.35;;
51224;SDS011;37298;42.688;23.312;2023-05-10T06:01:23;7.10;;;4.70;;
51224;SDS011;37298;42.688;23.312;2023-05-10T06:03:52;7.47;;;4.22;;
51224;SDS011;37298;42.688;23.312;2023-05-10T06:06:18;7.47;;;5.10;;
51224;SDS011;37298;42.688;23.312;2023-05-10T06:08:46;7.18;;;4.68;;
51224;SDS011;37298;42.688;23.312;2023-05-10T06:11:12;6.88;;;4.53;;
51224;SDS011;37298;42.688;23.312;2023-05-10T06:13:40;8.48;;;4.50;;
51224;SDS011;37298;42.688;23.312;2023-05-10T06:16:07;6.82;;;4.68;;
51224;SDS011;37298;42.688;23.312;2023-05-10T06:18:34;6.00;;;4.22;;
51224;SDS011;37298;42.688;23.312;2023-05-10T06:21:02;7.35;;;4.22;;
51224;SDS011;37298;42.688;23.312;2023-05-10T06:23:29;7.53;;;4.88;;
51224;SDS011;37298;42.688;23.312;2023-05-10T06:25:56;6.57;;;4.30;;
51224;SDS011;37298;42.688;23.312;2023-05-10T06:28:23;9.68;;;4.80;;
51224;SDS011;37298;42.688;23.312;2023-05-10T06:30:50;7.70;;;4.70;;
51224;SDS011;37298;42.688;23.312;2023-05-10T06:33:17;8.77;;;4.80;;
51224;SDS011;37298;42.688;23.312;2023-05-10T06:35:44;12.35;;;4.53;;
51224;SDS011;37298;42.688;23.312;2023-05-10T06:38:12;8.98;;;4.40;;
51224;SDS011;37298;42.688;23.312;2023-05-10T06:40:40;7.35;;;4.53;;
51224;SDS011;37298;42.688;23.312;2023-05-10T06:45:34;6.00;;;3.72;;
51224;SDS011;37298;42.688;23.312;2023-05-10T06:48:01;8.48;;;4.38;;
51224;SDS011;37298;42.688;23.312;2023-05-10T06:50:28;6.75;;;4.43;;
51224;SDS011;37298;42.688;23.312;2023-05-10T06:52:55;7.22;;;4.97;;
51224;SDS011;37298;42.688;23.312;2023-05-10T06:55:23;4.72;;;3.72;;
51224;SDS011;37298;42.688;23.312;2023-05-10T06:57:50;7.80;;;5.03;;
51224;SDS011;37298;42.688;23.312;2023-05-10T07:00:17;6.93;;;4.78;;
51224;SDS011;37298;42.688;23.312;2023-05-10T07:02:44;7.22;;;4.53;;
51224;SDS011;37298;42.688;23.312;2023-05-10T07:05:12;5.63;;;4.15;;
51224;SDS011;37298;42.688;23.312;2023-05-10T07:07:39;7.97;;;3.92;;
51224;SDS011;37298;42.688;23.312;2023-05-10T07:10:06;5.55;;;3.65;;
51224;SDS011;37298;42.688;23.312;2023-05-10T07:12:35;4.28;;;3.65;;
51224;SDS011;37298;42.688;23.312;2023-05-10T07:15:02;6.72;;;4.40;;
51224;SDS011;37298;42.688;23.312;2023-05-10T07:17:29;6.78;;;4.80;;
51224;SDS011;37298;42.688;23.312;2023-05-10T07:19:56;6.97;;;4.07;;
51224;SDS011;37298;42.688;23.312;2023-05-10T07:22:23;7.97;;;4.40;;
51224;SDS011;37298;42.688;23.312;2023-05-10T07:24:50;12.57;;;4.15;;
51224;SDS011;37298;42.688;23.312;2023-05-10T07:27:17;9.30;;;5.03;;
51224;SDS011;37298;42.688;23.312;2023-05-10T07:29:45;4.93;;;3.67;;
51224;SDS011;37298;42.688;23.312;2023-05-10T07:32:12;8.98;;;4.40;;
51224;SDS011;37298;42.688;23.312;2023-05-10T07:34:38;8.80;;;4.20;;
51224;SDS011;37298;42.688;23.312;2023-05-10T07:37:05;8.43;;;4.65;;
51224;SDS011;37298;42.688;23.312;2023-05-10T07:39:32;6.97;;;5.30;;
51224;SDS011;37298;42.688;23.312;2023-05-10T07:41:59;5.55;;;4.28;;
51224;SDS011;37298;42.688;23.312;2023-05-10T07:44:26;8.35;;;4.60;;
51224;SDS011;37298;42.688;23.312;2023-05-10T07:46:55;6.50;;;5.05;;
51224;SDS011;37298;42.688;23.312;2023-05-10T07:49:22;10.40;;;4.47;;
51224;SDS011;37298;42.688;23.312;2023-05-10T07:51:50;7.68;;;4.85;;
51224;SDS011;37298;42.688;23.312;2023-05-10T07:54:17;6.22;;;4.25;;
51224;SDS011;37298;42.688;23.312;2023-05-10T07:56:44;7.13;;;5.10;;
51224;SDS011;37298;42.688;23.312;2023-05-10T07:59:14;5.57;;;4.38;;
51224;SDS011;37298;42.688;23.312;2023-05-10T08:01:42;7.68;;;4.75;;
51224;SDS011;37298;42.688;23.312;2023-05-10T08:04:10;7.20;;;4.70;;
51224;SDS011;37298;42.688;23.312;2023-05-10T08:06:37;8.80;;;5.30;;
51224;SDS011;37298;42.688;23.312;2023-05-10T08:09:07;6.28;;;5.13;;
51224;SDS011;37298;42.688;23.312;2023-05-10T08:11:34;7.40;;;5.18;;
51224;SDS011;37298;42.688;23.312;2023-05-10T08:14:01;8.60;;;5.10;;
51224;SDS011;37298;42.688;23.312;2023-05-10T08:16:28;7.57;;;5.25;;
51224;SDS011;37298;42.688;23.312;2023-05-10T08:18:55;6.82;;;4.35;;
51224;SDS011;37298;42.688;23.312;2023-05-10T08:21:23;5.70;;;4.68;;
51224;SDS011;37298;42.688;23.312;2023-05-10T08:23:51;5.97;;;4.60;;
51224;SDS011;37298;42.688;23.312;2023-05-10T08:26:18;9.52;;;5.30;;
51224;SDS011;37298;42.688;23.312;2023-05-10T08:28:46;6.95;;;4.80;;
51224;SDS011;37298;42.688;23.312;2023-05-10T08:31:13;7.63;;;4.82;;
51224;SDS011;37298;42.688;23.312;2023-05-10T08:33:40;7.53;;;4.80;;
51224;SDS011;37298;42.688;23.312;2023-05-10T08:36:06;8.02;;;5.63;;
51224;SDS011;37298;42.688;23.312;2023-05-10T08:38:35;8.15;;;5.00;;
51224;SDS011;37298;42.688;23.312;2023-05-10T08:43:49;8.63;;;5.78;;
51224;SDS011;37298;42.688;23.312;2023-05-10T08:46:17;10.38;;;5.90;;
51224;SDS011;37298;42.688;23.312;2023-05-10T08:48:44;8.88;;;5.18;;
51224;SDS011;37298;42.688;23.312;2023-05-10T08:51:12;6.95;;;4.45;;
51224;SDS011;37298;42.688;23.312;2023-05-10T08:53:45;8.48;;;4.20;;
51224;SDS011;37298;42.688;23.312;2023-05-10T08:56:12;7.38;;;4.82;;
51224;SDS011;37298;42.688;23.312;2023-05-10T08:58:41;7.25;;;5.28;;
51224;SDS011;37298;42.688;23.312;2023-05-10T09:01:08;9.80;;;5.18;;
51224;SDS011;37298;42.688;23.312;2023-05-10T09:03:35;5.72;;;4.95;;
51224;SDS011;37298;42.688;23.312;2023-05-10T09:06:04;8.07;;;5.88;;
51224;SDS011;37298;42.688;23.312;2023-05-10T09:08:32;6.20;;;5.47;;
51224;SDS011;37298;42.688;23.312;2023-05-10T09:11:02;6.63;;;4.75;;
51224;SDS011;37298;42.688;23.312;2023-05-10T09:13:29;8.98;;;5.30;;
51224;SDS011;37298;42.688;23.312;2023-05-10T09:15:57;7.55;;;5.10;;
51224;SDS011;37298;42.688;23.312;2023-05-10T09:18:24;9.68;;;5.32;;
51224;SDS011;37298;42.688;23.312;2023-05-10T09:20:51;6.10;;;4.35;;
51224;SDS011;37298;42.688;23.312;2023-05-10T09:23:18;5.63;;;4.43;;
51224;SDS011;37298;42.688;23.312;2023-05-10T09:25:46;8.30;;;5.13;;
51224;SDS011;37298;42.688;23.312;2023-05-10T09:28:15;6.53;;;4.45;;
51224;SDS011;37298;42.688;23.312;2023-05-10T09:30:42;8.40;;;5.63;;
51224;SDS011;37298;42.688;23.312;2023-05-10T09:33:09;4.75;;;4.15;;
51224;SDS011;37298;42.688;23.312;2023-05-10T09:35:35;6.63;;;5.15;;
51224;SDS011;37298;42.688;23.312;2023-05-10T09:38:05;7.75;;;5.03;;
51224;SDS011;37298;42.688;23.312;2023-05-10T09:40:32;9.15;;;4.95;;
51224;SDS011;37298;42.688;23.312;2023-05-10T09:42:59;8.45;;;5.00;;
51224;SDS011;37298;42.688;23.312;2023-05-10T09:45:28;6.28;;;4.57;;
51224;SDS011;37298;42.688;23.312;2023-05-10T09:47:55;5.82;;;4.50;;
51224;SDS011;37298;42.688;23.312;2023-05-10T09:50:22;7.18;;;4.55;;
51224;SDS011;37298;42.688;23.312;2023-05-10T09:52:50;9.25;;;5.15;;
51224;SDS011;37298;42.688;23.312;2023-05-10T09:55:18;7.28;;;5.45;;
51224;SDS011;37298;42.688;23.312;2023-05-10T09:57:45;8.55;;;5.72;;
51224;SDS011;37298;42.688;23.312;2023-05-10T10:00:16;7.63;;;4.65;;
51224;SDS011;37298;42.688;23.312;2023-05-10T10:02:44;7.97;;;5.10;;
51224;SDS011;37298;42.688;23.312;2023-05-10T10:05:11;7.20;;;4.90;;
51224;SDS011;37298;42.688;23.312;2023-05-10T10:07:38;5.95;;;4.45;;
51224;SDS011;37298;42.688;23.312;2023-05-10T10:10:06;7.97;;;5.05;;
51224;SDS011;37298;42.688;23.312;2023-05-10T10:12:36;6.05;;;4.32;;
51224;SDS011;37298;42.688;23.312;2023-05-10T10:15:04;6.15;;;4.75;;
51224;SDS011;37298;42.688;23.312;2023-05-10T10:17:32;7.72;;;5.50;;
51224;SDS011;37298;42.688;23.312;2023-05-10T10:20:01;6.28;;;4.45;;
51224;SDS011;37298;42.688;23.312;2023-05-10T10:22:28;10.40;;;5.13;;
51224;SDS011;37298;42.688;23.312;2023-05-10T10:24:55;6.63;;;4.88;;
51224;SDS011;37298;42.688;23.312;2023-05-10T10:27:23;7.07;;;5.00;;
51224;SDS011;37298;42.688;23.312;2023-05-10T10:29:56;8.35;;;4.50;;
51224;SDS011;37298;42.688;23.312;2023-05-10T10:32:26;10.88;;;4.05;;
51224;SDS011;37298;42.688;23.312;2023-05-10T10:34:54;6.95;;;4.13;;
51224;SDS011;37298;42.688;23.312;2023-05-10T10:37:23;7.18;;;5.32;;
51224;SDS011;37298;42.688;23.312;2023-05-10T10:39:50;5.68;;;4.38;;
51224;SDS011;37298;42.688;23.312;2023-05-10T10:45:11;4.75;;;3.92;;
51224;SDS011;37298;42.688;23.312;2023-05-10T10:47:38;6.80;;;4.18;;
51224;SDS011;37298;42.688;23.312;2023-05-10T10:50:05;5.82;;;4.25;;
51224;SDS011;37298;42.688;23.312;2023-05-10T10:52:34;4.95;;;3.40;;
51224;SDS011;37298;42.688;23.312;2023-05-10T10:57:33;5.88;;;3.97;;
51224;SDS011;37298;42.688;23.312;2023-05-10T11:03:03;7.07;;;4.32;;
51224;SDS011;37298;42.688;23.312;2023-05-10T11:05:36;4.68;;;3.28;;
51224;SDS011;37298;42.688;23.312;2023-05-10T11:08:08;5.43;;;3.83;;
51224;SDS011;37298;42.688;23.312;2023-05-10T11:10:36;6.43;;;4.18;;
51224;SDS011;37298;42.688;23.312;2023-05-10T11:13:03;6.35;;;3.47;;
51224;SDS011;37298;42.688;23.312;2023-05-10T11:15:31;4.28;;;3.60;;
51224;SDS011;37298;42.688;23.312;2023-05-10T11:17:58;5.15;;;3.78;;
51224;SDS011;37298;42.688;23.312;2023-05-10T11:20:26;4.88;;;3.30;;
51224;SDS011;37298;42.688;23.312;2023-05-10T11:23:10;7.32;;;3.55;;
51224;SDS011;37298;42.688;23.312;2023-05-10T11:25:41;3.92;;;3.45;;
51224;SDS011;37298;42.688;23.312;2023-05-10T11:28:09;5.15;;;3.40;;
51224;SDS011;37298;42.688;23.312;2023-05-10T11:30:36;5.95;;;4.15;;
51224;SDS011;37298;42.688;23.312;2023-05-10T11:33:04;9.23;;;4.07;;
51224;SDS011;37298;42.688;23.312;2023-05-10T11:35:36;5.43;;;3.85;;
51224;SDS011;37298;42.688;23.312;2023-05-10T11:38:04;5.25;;;4.10;;
51224;SDS011;37298;42.688;23.312;2023-05-10T11:40:31;6.28;;;4.43;;
51224;SDS011;37298;42.688;23.312;2023-05-10T11:43:00;5.13;;;3.92;;
51224;SDS011;37298;42.688;23.312;2023-05-10T11:45:27;6.55;;;4.30;;
51224;SDS011;37298;42.688;23.312;2023-05-10T11:47:54;8.25;;;3.20;;
51224;SDS011;37298;42.688;23.312;2023-05-10T11:50:21;5.72;;;3.65;;
51224;SDS011;37298;42.688;23.312;2023-05-10T11:52:50;5.68;;;3.75;;
51224;SDS011;37298;42.688;23.312;2023-05-10T11:55:17;4.45;;;3.50;;
51224;SDS011;37298;42.688;23.312;2023-05-10T11:57:44;6.40;;;3.28;;
51224;SDS011;37298;42.688;23.312;2023-05-10T12:02:43;7.35;;;5.00;;
51224;SDS011;37298;42.688;23.312;2023-05-10T12:05:10;8.40;;;4.38;;
51224;SDS011;37298;42.688;23.312;2023-05-10T12:07:37;4.82;;;3.97;;
51224;SDS011;37298;42.688;23.312;2023-05-10T12:10:07;5.70;;;3.97;;
51224;SDS011;37298;42.688;23.312;2023-05-10T12:12:35;5.38;;;3.83;;
51224;SDS011;37298;42.688;23.312;2023-05-10T12:15:03;7.43;;;4.80;;
51224;SDS011;37298;42.688;23.312;2023-05-10T12:17:31;8.18;;;4.20;;
51224;SDS011;37298;42.688;23.312;2023-05-10T12:20:00;8.18;;;3.78;;
51224;SDS011;37298;42.688;23.312;2023-05-10T12:22:39;6.68;;;4.13;;
51224;SDS011;37298;42.688;23.312;2023-05-10T12:25:06;4.45;;;3.55;;
51224;SDS011;37298;42.688;23.312;2023-05-10T12:27:34;6.25;;;4.18;;
51224;SDS011;37298;42.688;23.312;2023-05-10T12:30:04;5.45;;;4.05;;
51224;SDS011;37298;42.688;23.312;2023-05-10T12:32:37;9.23;;;4.53;;
51224;SDS011;37298;42.688;23.312;2023-05-10T12:35:07;6.40;;;4.18;;
51224;SDS011;37298;42.688;23.312;2023-05-10T12:37:34;6.50;;;4.38;;
51224;SDS011;37298;42.688;23.312;2023-05-10T12:40:08;8.57;;;4.07;;
51224;SDS011;37298;42.688;23.312;2023-05-10T12:42:36;6.68;;;4.47;;
51224;SDS011;37298;42.688;23.312;2023-05-10T12:45:03;4.07;;;3.60;;
51224;SDS011;37298;42.688;23.312;2023-05-10T12:47:30;5.57;;;4.15;;
51224;SDS011;37298;42.688;23.312;2023-05-10T12:49:57;7.13;;;4.60;;
51224;SDS011;37298;42.688;23.312;2023-05-10T12:52:26;6.28;;;3.83;;
51224;SDS011;37298;42.688;23.312;2023-05-10T12:54:54;9.40;;;4.28;;
51224;SDS011;37298;42.688;23.312;2023-05-10T12:57:20;6.22;;;3.83;;
51224;SDS011;37298;42.688;23.312;2023-05-10T12:59:47;9.20;;;5.38;;
51224;SDS011;37298;42.688;23.312;2023-05-10T13:02:14;7.07;;;5.07;;
51224;SDS011;37298;42.688;23.312;2023-05-10T13:04:43;9.13;;;4.32;;
51224;SDS011;37298;42.688;23.312;2023-05-10T13:07:11;5.78;;;4.35;;
51224;SDS011;37298;42.688;23.312;2023-05-10T13:09:40;6.47;;;4.20;;
51224;SDS011;37298;42.688;23.312;2023-05-10T13:12:09;7.40;;;4.22;;
51224;SDS011;37298;42.688;23.312;2023-05-10T13:14:36;7.40;;;4.55;;
51224;SDS011;37298;42.688;23.312;2023-05-10T13:17:03;5.85;;;4.25;;
51224;SDS011;37298;42.688;23.312;2023-05-10T13:19:30;6.63;;;4.68;;
51224;SDS011;37298;42.688;23.312;2023-05-10T13:21:57;5.63;;;4.43;;
51224;SDS011;37298;42.688;23.312;2023-05-10T13:24:24;6.53;;;5.00;;
51224;SDS011;37298;42.688;23.312;2023-05-10T13:26:52;5.80;;;3.85;;
51224;SDS011;37298;42.688;23.312;2023-05-10T13:29:19;6.55;;;4.03;;
51224;SDS011;37298;42.688;23.312;2023-05-10T13:31:47;6.30;;;4.47;;
51224;SDS011;37298;42.688;23.312;2023-05-10T13:34:14;8.57;;;4.70;;
51224;SDS011;37298;42.688;23.312;2023-05-10T13:36:41;5.80;;;4.03;;
51224;SDS011;37298;42.688;23.312;2023-05-10T13:39:08;6.65;;;4.30;;
51224;SDS011;37298;42.688;23.312;2023-05-10T13:41:35;5.00;;;3.83;;
51224;SDS011;37298;42.688;23.312;2023-05-10T13:44:04;4.85;;;3.47;;
51224;SDS011;37298;42.688;23.312;2023-05-10T13:46:31;6.53;;;4.30;;
51224;SDS011;37298;42.688;23.312;2023-05-10T13:48:57;6.50;;;3.97;;
51224;SDS011;37298;42.688;23.312;2023-05-10T13:51:24;5.45;;;3.78;;
51224;SDS011;37298;42.688;23.312;2023-05-10T13:53:51;5.40;;;3.72;;
51224;SDS011;37298;42.688;23.312;2023-05-10T13:56:18;7.53;;;4.97;;
51224;SDS011;37298;42.688;23.312;2023-05-10T13:58:45;6.10;;;4.03;;
51224;SDS011;37298;42.688;23.312;2023-05-10T14:01:14;4.85;;;3.88;;
51224;SDS011;37298;42.688;23.312;2023-05-10T14:03:41;5.47;;;4.28;;
51224;SDS011;37298;42.688;23.312;2023-05-10T14:06:08;4.65;;;3.85;;
51224;SDS011;37298;42.688;23.312;2023-05-10T14:08:35;4.72;;;3.33;;
51224;SDS011;37298;42.688;23.312;2023-05-10T14:11:02;6.40;;;4.57;;
51224;SDS011;37298;42.688;23.312;2023-05-10T14:13:29;7.05;;;4.35;;
51224;SDS011;37298;42.688;23.312;2023-05-10T14:15:56;6.05;;;4.35;;
51224;SDS011;37298;42.688;23.312;2023-05-10T14:18:25;5.13;;;3.55;;
51224;SDS011;37298;42.688;23.312;2023-05-10T14:20:52;4.07;;;3.30;;
51224;SDS011;37298;42.688;23.312;2023-05-10T14:23:22;4.35;;;3.25;;
51224;SDS011;37298;42.688;23.312;2023-05-10T14:25:51;7.00;;;4.93;;
51224;SDS011;37298;42.688;23.312;2023-05-10T14:28:18;5.22;;;4.13;;
51224;SDS011;37298;42.688;23.312;2023-05-10T14:30:46;5.13;;;3.93;;
51224;SDS011;37298;42.688;23.312;2023-05-10T14:33:13;5.47;;;3.72;;
51224;SDS011;37298;42.688;23.312;2023-05-10T14:35:41;6.50;;;4.45;;
51224;SDS011;37298;42.688;23.312;2023-05-10T14:38:08;6.18;;;3.70;;
51224;SDS011;37298;42.688;23.312;2023-05-10T14:40:36;7.05;;;4.47;;
51224;SDS011;37298;42.688;23.312;2023-05-10T14:43:03;7.15;;;4.45;;
51224;SDS011;37298;42.688;23.312;2023-05-10T14:45:30;6.30;;;4.30;;
51224;SDS011;37298;42.688;23.312;2023-05-10T14:47:56;6.25;;;3.90;;
51224;SDS011;37298;42.688;23.312;2023-05-10T14:50:24;6.32;;;4.07;;
51224;SDS011;37298;42.688;23.312;2023-05-10T14:52:52;5.10;;;3.70;;